Terminal Aerodrome Forecast
Issued by NWS

Home | Current Version | Previous Version | Text Only | Print | Product List | Glossary Off
Versions: 1 2 3 4 5 6 7 8 9 10 11 12 13 14 15 16 17 18 19 20 21 22

000
FTUS43 KMPX 191700
TAFAXN
TAF
KAXN 191738Z 1918/2018 24007KT P6SM SCT250
     FM200200 VRB03KT P6SM SCT100 BKN200
     FM200600 17008KT P6SM SCT070 BKN200
     FM201400 17014G20KT P6SM SCT060 BKN150=

USA.gov is the U.S. government's official web portal to all federal, state and local government web resources and services.